createdAt,value
2022-09-16T00:00:48.044Z,98463.00
2022-09-16T00:03:17.932Z,98469.78
2022-09-16T00:05:50.392Z,98469.44
2022-09-16T00:08:18.937Z,98478.56
2022-09-16T00:10:46.230Z,98469.66
2022-09-16T00:13:14.158Z,98452.63
2022-09-16T00:15:51.279Z,98477.31
2022-09-16T00:18:20.580Z,98481.59
2022-09-16T00:20:51.114Z,98480.31
2022-09-16T00:23:19.368Z,98476.03
2022-09-16T00:25:54.181Z,98440.84
2022-09-16T00:28:22.349Z,98462.06
2022-09-16T00:30:50.333Z,98436.06
2022-09-16T00:33:18.434Z,98444.16
2022-09-16T00:35:46.507Z,98443.41
2022-09-16T00:38:13.884Z,98451.88
2022-09-16T00:40:49.849Z,98465.97
2022-09-16T00:43:19.214Z,98467.03
2022-09-16T00:45:57.150Z,98444.66
2022-09-16T00:48:27.611Z,98469.94
2022-09-16T00:50:59.954Z,98464.84
2022-09-16T00:53:31.502Z,98476.06
2022-09-16T00:56:01.056Z,98478.50
2022-09-16T00:58:31.032Z,98477.69
2022-09-16T01:00:58.233Z,98469.94
2022-09-16T01:03:26.333Z,98466.72
2022-09-16T01:05:53.787Z,98471.09
2022-09-16T01:08:21.088Z,98471.94
2022-09-16T01:10:48.223Z,98471.16
2022-09-16T01:13:16.308Z,98463.41
2022-09-16T01:16:02.265Z,98468.28
2022-09-16T01:18:38.161Z,98466.28
2022-09-16T01:21:39.169Z,98456.81
2022-09-16T01:24:12.013Z,98457.84
2022-09-16T01:27:01.993Z,98458.50
2022-09-16T01:29:58.548Z,98449.44
2022-09-16T01:32:39.815Z,98449.56
2022-09-16T01:35:09.899Z,98455.09
2022-09-16T01:38:07.381Z,98449.66
2022-09-16T01:40:58.170Z,98451.47
2022-09-16T01:44:07.901Z,98446.50
2022-09-16T01:46:40.673Z,98451.13
2022-09-16T01:49:32.340Z,98450.22
2022-09-16T01:52:21.075Z,98460.13
2022-09-16T01:54:51.257Z,98454.44
2022-09-16T01:57:32.348Z,98455.19
2022-09-16T02:00:14.502Z,98445.50
2022-09-16T02:02:53.482Z,98454.03
2022-09-16T02:05:46.237Z,98451.00
2022-09-16T02:08:19.185Z,98450.47
2022-09-16T02:10:53.943Z,98439.09
2022-09-16T02:13:30.284Z,98435.44
2022-09-16T02:16:04.058Z,98453.44
2022-09-16T02:18:37.298Z,98454.13
2022-09-16T02:21:07.292Z,98454.00
2022-09-16T02:23:50.771Z,98449.84
2022-09-16T02:26:23.287Z,98449.63
2022-09-16T02:28:53.916Z,98445.19
2022-09-16T02:31:26.758Z,98432.97
2022-09-16T02:34:08.092Z,98434.88
2022-09-16T02:36:38.148Z,98446.94
2022-09-16T02:39:10.051Z,98444.94
2022-09-16T02:41:39.641Z,98445.31
2022-09-16T02:44:08.800Z,98430.16
2022-09-16T02:47:08.671Z,98433.97
2022-09-16T02:49:51.377Z,98429.88
2022-09-16T02:52:33.941Z,98433.50
2022-09-16T02:55:15.094Z,98444.19
2022-09-16T02:57:42.459Z,98418.81
2022-09-16T03:00:10.370Z,98428.84
2022-09-16T03:02:37.675Z,98433.91
2022-09-16T03:05:06.077Z,98436.47
2022-09-16T03:07:34.071Z,98428.25
2022-09-16T03:10:01.308Z,98431.91
2022-09-16T03:12:50.415Z,98436.44
2022-09-16T03:15:42.422Z,98428.09
2022-09-16T03:18:46.895Z,98433.19
2022-09-16T03:21:28.900Z,98427.88
2022-09-16T03:24:14.721Z,98429.34
2022-09-16T03:27:00.780Z,98423.91
2022-09-16T03:29:39.784Z,98411.06
2022-09-16T03:32:21.940Z,98415.75
2022-09-16T03:34:55.655Z,98402.69
2022-09-16T03:37:27.438Z,98420.63
2022-09-16T03:40:00.324Z,98420.22
2022-09-16T03:42:27.453Z,98409.44
2022-09-16T03:44:54.709Z,98394.41
2022-09-16T03:47:21.805Z,98403.97
2022-09-16T03:49:48.916Z,98417.34
2022-09-16T03:52:18.630Z,98399.09
2022-09-16T03:54:46.150Z,98417.81
2022-09-16T03:57:13.202Z,98423.28
2022-09-16T03:59:41.241Z,98413.47
2022-09-16T04:02:08.310Z,98398.13
2022-09-16T04:04:54.298Z,98418.88
2022-09-16T04:07:21.382Z,98411.47
2022-09-16T04:09:48.515Z,98435.09
2022-09-16T04:12:15.590Z,98438.16
2022-09-16T04:14:42.727Z,98425.22
2022-09-16T04:17:09.891Z,98434.88
2022-09-16T04:19:36.998Z,98437.97
2022-09-16T04:22:04.105Z,98441.66
2022-09-16T04:24:31.216Z,98437.69
2022-09-16T04:26:58.421Z,98431.63
2022-09-16T04:29:25.512Z,98415.41
2022-09-16T04:31:52.583Z,98432.41
2022-09-16T04:34:19.697Z,98433.59
2022-09-16T04:36:46.943Z,98428.09
2022-09-16T04:39:14.200Z,98425.22
2022-09-16T04:41:41.596Z,98408.25
2022-09-16T04:44:10.499Z,98439.81
2022-09-16T04:46:37.650Z,98433.50
2022-09-16T04:49:04.987Z,98416.09
2022-09-16T04:51:33.002Z,98397.41
2022-09-16T04:54:01.551Z,98414.47
2022-09-16T04:56:31.582Z,98408.41
2022-09-16T04:59:01.103Z,98407.59
2022-09-16T05:01:33.907Z,98407.25
2022-09-16T05:04:03.382Z,98404.88
2022-09-16T05:06:36.740Z,98401.66
2022-09-16T05:09:04.331Z,98403.69
2022-09-16T05:11:37.139Z,98400.44
2022-09-16T05:14:06.914Z,98404.06
2022-09-16T05:16:34.572Z,98404.31
2022-09-16T05:19:05.021Z,98398.84
2022-09-16T05:21:35.399Z,98402.28
2022-09-16T05:24:04.483Z,98376.28
2022-09-16T05:26:32.804Z,98399.28
2022-09-16T05:29:05.635Z,98405.19
2022-09-16T05:31:36.328Z,98399.28
2022-09-16T05:34:07.846Z,98384.66
2022-09-16T05:36:37.760Z,98390.31
2022-09-16T05:39:22.095Z,98391.56
2022-09-16T05:41:56.939Z,98388.72
2022-09-16T05:44:24.462Z,98381.00
2022-09-16T05:46:51.945Z,98386.72
2022-09-16T05:49:21.016Z,98371.28
2022-09-16T05:51:49.294Z,98384.66
2022-09-16T05:54:18.755Z,98379.63
2022-09-16T05:56:47.204Z,98354.19
2022-09-16T05:59:15.640Z,98366.41
2022-09-16T06:01:43.257Z,98356.25
2022-09-16T06:04:12.601Z,98362.34
2022-09-16T06:06:41.887Z,98363.59
2022-09-16T06:09:12.063Z,98371.09
2022-09-16T06:11:42.011Z,98356.69
2022-09-16T06:14:10.286Z,98367.69
2022-09-16T06:16:38.337Z,98364.41
2022-09-16T06:19:10.567Z,98360.75
2022-09-16T06:21:38.369Z,98355.69
2022-09-16T06:24:08.925Z,98342.06
2022-09-16T06:26:37.335Z,98362.41
2022-09-16T06:29:06.349Z,98363.81
2022-09-16T06:31:34.438Z,98365.03
2022-09-16T06:34:01.933Z,98355.09
2022-09-16T06:36:32.384Z,98346.13
2022-09-16T06:38:59.742Z,98360.31
2022-09-16T06:41:26.800Z,98347.31
2022-09-16T06:43:53.980Z,98350.53
2022-09-16T06:46:26.196Z,98343.03
2022-09-16T06:48:58.515Z,98343.66
2022-09-16T06:51:29.891Z,98319.66
2022-09-16T06:54:04.015Z,98330.81
2022-09-16T06:56:31.179Z,98323.25
2022-09-16T06:58:58.311Z,98332.19
2022-09-16T07:01:28.466Z,98337.75
2022-09-16T07:03:57.562Z,98329.78
2022-09-16T07:06:49.539Z,98332.44
2022-09-16T07:09:15.070Z,98340.53
2022-09-16T07:11:42.269Z,98329.19
2022-09-16T07:14:09.764Z,98319.47
2022-09-16T07:16:36.891Z,98318.03
2022-09-16T07:19:04.777Z,98324.88
2022-09-16T07:21:31.997Z,98333.56
2022-09-16T07:24:02.582Z,98315.38
2022-09-16T07:26:31.153Z,98324.25
2022-09-16T07:29:03.808Z,98326.63
2022-09-16T07:31:34.343Z,98316.22
2022-09-16T07:34:04.383Z,98310.97
2022-09-16T07:36:33.765Z,98313.16
2022-09-16T07:39:01.636Z,98300.19
2022-09-16T07:41:32.533Z,98305.88
2022-09-16T07:44:00.436Z,98296.94
2022-09-16T07:46:29.995Z,98302.03
2022-09-16T07:48:59.393Z,98297.09
2022-09-16T07:51:28.015Z,98293.84
2022-09-16T07:54:02.298Z,98275.88
2022-09-16T07:56:31.613Z,98281.91
2022-09-16T07:58:58.740Z,98279.13
2022-09-16T08:01:26.213Z,98272.31
2022-09-16T08:03:53.685Z,98264.63
2022-09-16T08:06:23.700Z,98273.25
2022-09-16T08:08:55.326Z,98260.28
2022-09-16T08:11:23.044Z,98246.06
2022-09-16T08:13:50.270Z,98254.13
2022-09-16T08:16:19.709Z,98228.59
2022-09-16T08:18:49.213Z,98257.03
2022-09-16T08:21:21.654Z,98259.25
2022-09-16T08:23:49.117Z,98247.25
2022-09-16T08:26:17.931Z,98253.00
2022-09-16T08:29:07.452Z,98250.16
2022-09-16T08:31:33.827Z,98251.41
2022-09-16T08:34:00.896Z,98240.31
2022-09-16T08:36:28.077Z,98240.78
2022-09-16T08:38:56.719Z,98248.97
2022-09-16T08:41:33.646Z,98235.00
2022-09-16T08:44:21.939Z,98227.00
2022-09-16T08:46:51.969Z,98237.97
2022-09-16T08:49:28.532Z,98242.63
2022-09-16T08:51:57.250Z,98233.31
2022-09-16T08:54:48.992Z,98237.28
2022-09-16T08:57:20.598Z,98219.50
2022-09-16T08:59:57.802Z,98230.13
2022-09-16T09:02:38.874Z,98225.03
2022-09-16T09:05:31.449Z,98216.41
2022-09-16T09:08:29.717Z,98228.28
2022-09-16T09:11:08.272Z,98234.50
2022-09-16T09:14:10.637Z,98234.72
2022-09-16T09:17:01.752Z,98218.78
2022-09-16T09:19:53.107Z,98228.81
2022-09-16T09:22:25.856Z,98233.31
2022-09-16T09:25:10.894Z,98231.81
2022-09-16T09:27:40.789Z,98231.22
2022-09-16T09:30:33.824Z,98230.13
2022-09-16T09:33:22.143Z,98235.53
2022-09-16T09:36:11.807Z,98218.53
2022-09-16T09:38:57.573Z,98222.66
2022-09-16T09:41:36.825Z,98217.56
2022-09-16T09:44:30.071Z,98218.06
2022-09-16T09:47:03.530Z,98209.13
2022-09-16T09:49:41.175Z,98204.19
2022-09-16T09:52:16.671Z,98206.84
2022-09-16T09:54:51.162Z,98195.88
2022-09-16T09:57:33.145Z,98199.25
2022-09-16T10:00:16.320Z,98180.25
2022-09-16T10:02:49.648Z,98186.63
2022-09-16T10:05:26.277Z,98199.06
2022-09-16T10:07:57.567Z,98179.53
2022-09-16T10:10:29.992Z,98189.97
2022-09-16T10:13:08.057Z,98175.97
2022-09-16T10:15:35.226Z,98184.53
2022-09-16T10:18:13.725Z,98176.88
2022-09-16T10:20:44.461Z,98181.59
2022-09-16T10:23:19.709Z,98152.03
2022-09-16T10:25:46.872Z,98175.75
2022-09-16T10:28:26.743Z,98175.22
2022-09-16T10:30:56.685Z,98163.53
2022-09-16T10:33:37.421Z,98163.94
2022-09-16T10:36:08.258Z,98162.53
2022-09-16T10:38:42.555Z,98153.06
2022-09-16T10:41:16.451Z,98156.13
2022-09-16T10:43:56.729Z,98153.22
2022-09-16T10:46:24.837Z,98130.53
2022-09-16T10:48:57.294Z,98140.69
2022-09-16T10:51:29.601Z,98132.44
2022-09-16T10:53:59.784Z,98147.06
2022-09-16T10:56:30.068Z,98138.47
2022-09-16T10:59:10.540Z,98147.53
2022-09-16T11:01:47.192Z,98141.66
2022-09-16T11:04:18.331Z,98144.19
2022-09-16T11:07:03.330Z,98139.50
2022-09-16T11:09:44.389Z,98133.59
2022-09-16T11:12:32.136Z,98132.09
2022-09-16T11:15:20.014Z,98136.59
2022-09-16T11:18:05.058Z,98103.09
2022-09-16T11:20:50.193Z,98120.44
2022-09-16T11:23:26.905Z,98114.31
2022-09-16T11:25:53.939Z,98108.84
2022-09-16T11:28:41.928Z,98113.19
2022-09-16T11:31:12.066Z,98110.13
2022-09-16T11:34:11.651Z,98105.38
2022-09-16T11:37:07.015Z,98112.34
2022-09-16T11:39:37.229Z,98115.91
2022-09-16T11:42:24.108Z,98095.91
2022-09-16T11:45:42.165Z,98109.88
2022-09-16T11:48:24.088Z,98107.81
2022-09-16T11:51:41.404Z,98109.78
2022-09-16T11:56:56.246Z,98087.28
2022-09-16T11:59:40.031Z,98086.06
2022-09-16T12:02:17.035Z,98090.22
2022-09-16T12:04:55.817Z,98081.13
2022-09-16T12:07:46.287Z,98083.88
2022-09-16T12:10:25.106Z,98074.31
2022-09-16T12:13:15.638Z,98076.84
2022-09-16T12:15:50.041Z,98072.28
2022-09-16T12:18:21.845Z,98075.84
2022-09-16T12:21:09.097Z,98076.59
2022-09-16T12:23:43.228Z,98078.22
2022-09-16T12:26:34.991Z,98073.66
2022-09-16T12:29:33.584Z,98077.47
2022-09-16T12:32:09.930Z,98074.25
2022-09-16T12:34:43.643Z,98061.47
2022-09-16T12:37:10.694Z,98066.78
2022-09-16T12:39:38.529Z,98073.81
2022-09-16T12:42:20.750Z,98067.69
2022-09-16T12:44:50.574Z,98063.13
2022-09-16T12:47:45.463Z,98064.06
2022-09-16T12:50:13.190Z,98051.59
2022-09-16T12:52:59.312Z,98055.53
2022-09-16T12:55:50.666Z,98058.53
2022-09-16T12:58:17.735Z,98054.84
2022-09-16T13:01:00.268Z,98051.16
2022-09-16T13:03:31.800Z,98040.84
2022-09-16T13:06:07.541Z,98042.75
2022-09-16T13:08:35.729Z,98043.06
2022-09-16T13:14:00.160Z,98038.41
2022-09-16T13:16:29.183Z,98037.00
2022-09-16T13:19:23.808Z,98042.47
2022-09-16T13:21:57.638Z,98043.88
2022-09-16T13:24:39.246Z,98014.00
2022-09-16T13:27:31.658Z,98043.06
2022-09-16T13:30:13.669Z,98042.75
2022-09-16T13:32:53.192Z,98044.69
2022-09-16T13:35:21.052Z,98045.16
2022-09-16T13:37:54.600Z,98040.31
2022-09-16T13:40:21.829Z,98044.66
2022-09-16T13:42:49.112Z,98036.13
2022-09-16T13:45:34.109Z,98045.22
2022-09-16T13:48:14.046Z,98051.91
2022-09-16T13:50:45.061Z,98035.59
2022-09-16T13:53:28.850Z,98031.75
2022-09-16T13:56:20.563Z,98040.09
2022-09-16T13:59:22.313Z,98033.72
2022-09-16T14:02:29.545Z,98058.19
2022-09-16T14:05:09.200Z,98062.81
2022-09-16T14:07:56.551Z,98062.34
2022-09-16T14:10:35.402Z,98059.47
2022-09-16T14:13:14.580Z,98050.94
2022-09-16T14:15:49.446Z,98061.44
2022-09-16T14:18:21.277Z,98053.78
2022-09-16T14:21:04.570Z,98041.84
2022-09-16T14:23:33.820Z,98066.19
2022-09-16T14:26:18.915Z,98051.97
2022-09-16T14:28:46.496Z,98052.66
2022-09-16T14:31:22.817Z,98046.69
2022-09-16T14:33:57.130Z,98046.91
2022-09-16T14:36:30.463Z,98047.84
2022-09-16T14:39:11.900Z,98045.44
2022-09-16T14:42:02.745Z,98045.00
2022-09-16T14:44:47.986Z,98047.13
2022-09-16T14:47:39.431Z,98037.81
2022-09-16T14:50:21.132Z,98050.41
2022-09-16T14:52:57.553Z,98048.78
2022-09-16T14:55:30.426Z,98050.41
2022-09-16T14:58:01.873Z,98035.63
2022-09-16T15:00:38.768Z,98044.72
2022-09-16T15:03:17.538Z,98038.94
2022-09-16T15:05:47.588Z,98024.22
2022-09-16T15:08:46.208Z,98029.84
2022-09-16T15:11:43.549Z,98022.53
2022-09-16T15:14:07.704Z,98030.72
2022-09-16T15:16:44.255Z,98020.75
2022-09-16T15:19:25.567Z,98029.91
2022-09-16T15:21:53.552Z,98028.88
2022-09-16T15:24:26.969Z,98019.63
2022-09-16T15:26:55.411Z,98031.34
2022-09-16T15:29:23.176Z,98023.88
2022-09-16T15:31:51.393Z,98004.84
2022-09-16T15:34:21.907Z,98019.56
2022-09-16T15:36:57.376Z,98016.88
2022-09-16T15:39:33.159Z,98020.53
2022-09-16T15:42:13.369Z,98015.97
2022-09-16T15:44:58.501Z,98018.63
2022-09-16T15:47:29.395Z,98007.56
2022-09-16T15:50:12.628Z,98011.38
2022-09-16T15:53:03.536Z,98002.31
2022-09-16T15:55:36.969Z,98015.88
2022-09-16T15:58:16.902Z,98003.44
2022-09-16T16:01:21.129Z,98017.50
2022-09-16T16:03:56.747Z,98010.28
2022-09-16T16:06:58.626Z,98009.75
2022-09-16T16:09:30.486Z,98009.06
2022-09-16T16:12:00.028Z,98009.19
2022-09-16T16:14:32.286Z,98004.03
2022-09-16T16:17:14.221Z,98003.81
2022-09-16T16:19:43.267Z,97988.97
2022-09-16T16:22:12.163Z,97984.91
2022-09-16T16:24:40.148Z,97992.84
2022-09-16T16:27:08.915Z,97993.75
2022-09-16T16:29:36.360Z,97985.06
2022-09-16T16:32:08.202Z,97991.38
2022-09-16T16:34:41.522Z,97988.00
2022-09-16T16:37:19.152Z,97986.53
2022-09-16T16:39:55.974Z,97976.69
2022-09-16T16:42:24.980Z,97986.25
2022-09-16T16:44:52.459Z,97977.81
2022-09-16T16:47:19.843Z,97960.22
2022-09-16T16:49:51.391Z,97978.59
2022-09-16T16:52:19.055Z,97981.38
2022-09-16T16:54:46.832Z,97970.38
2022-09-16T16:57:14.850Z,97968.66
2022-09-16T16:59:43.662Z,97956.84
2022-09-16T17:02:15.399Z,97935.97
2022-09-16T17:04:43.516Z,97971.69
2022-09-16T17:07:27.872Z,97958.59
2022-09-16T17:09:57.512Z,97950.97
2022-09-16T17:12:26.523Z,97946.94
2022-09-16T17:14:54.223Z,97939.72
2022-09-16T17:17:21.563Z,97941.28
2022-09-16T17:19:48.820Z,97971.69
2022-09-16T17:22:16.446Z,97968.13
2022-09-16T17:24:43.639Z,97971.69
2022-09-16T17:27:15.146Z,97956.19
2022-09-16T17:29:42.646Z,97963.03
2022-09-16T17:32:10.066Z,97965.38
2022-09-16T17:34:38.749Z,97972.41
2022-09-16T17:37:08.492Z,97970.66
2022-09-16T17:39:36.067Z,97968.31
2022-09-16T17:42:03.483Z,97943.91
2022-09-16T17:44:31.020Z,97966.28
2022-09-16T17:46:58.284Z,97964.47
2022-09-16T17:49:26.103Z,97963.06
2022-09-16T17:51:54.004Z,97979.31
2022-09-16T17:54:22.294Z,97980.78
2022-09-16T17:56:50.416Z,97969.06
2022-09-16T17:59:18.970Z,97972.97
2022-09-16T18:01:46.833Z,97954.59
2022-09-16T18:04:14.021Z,97968.09
2022-09-16T18:06:46.399Z,97959.72
2022-09-16T18:09:16.417Z,97961.66
2022-09-16T18:11:45.021Z,97957.97
2022-09-16T18:14:23.714Z,97952.47
2022-09-16T18:16:51.451Z,97954.81
2022-09-16T18:19:19.499Z,97950.09
2022-09-16T18:21:49.663Z,97946.56
2022-09-16T18:24:17.148Z,97938.03
2022-09-16T18:26:44.938Z,97943.75
2022-09-16T18:29:15.741Z,97939.16
2022-09-16T18:31:46.045Z,97941.88
2022-09-16T18:34:15.005Z,97942.25
2022-09-16T18:36:43.172Z,97931.31
2022-09-16T18:39:14.450Z,97931.91
2022-09-16T18:41:43.331Z,97941.69
2022-09-16T18:44:17.007Z,97936.25
2022-09-16T18:46:44.470Z,97942.50
2022-09-16T18:49:13.913Z,97955.72
2022-09-16T18:51:48.488Z,97955.22
2022-09-16T18:54:25.063Z,97951.34
2022-09-16T18:56:53.226Z,97946.03
2022-09-16T18:59:24.783Z,97955.13
2022-09-16T19:01:54.383Z,97957.56
2022-09-16T19:04:24.903Z,97949.25
2022-09-16T19:06:54.726Z,97952.63
2022-09-16T19:09:23.818Z,97953.50
2022-09-16T19:11:56.219Z,97949.72
2022-09-16T19:14:27.533Z,97943.34
2022-09-16T19:16:55.452Z,97954.38
2022-09-16T19:19:23.251Z,97954.47
2022-09-16T19:21:50.512Z,97944.78
2022-09-16T19:24:21.216Z,97955.59
2022-09-16T19:26:48.908Z,97953.75
2022-09-16T19:29:17.451Z,97960.50
2022-09-16T19:31:47.221Z,97949.34
2022-09-16T19:34:16.098Z,97945.72
2022-09-16T19:36:44.051Z,97960.06
2022-09-16T19:39:12.375Z,97959.84
2022-09-16T19:41:40.670Z,97966.28
2022-09-16T19:44:12.329Z,97962.63
2022-09-16T19:46:42.633Z,97963.31
2022-09-16T19:49:15.982Z,97970.22
2022-09-16T19:51:43.509Z,97964.56
2022-09-16T19:54:10.684Z,97967.41
2022-09-16T19:56:38.029Z,97966.59
2022-09-16T19:59:06.089Z,97966.53
2022-09-16T20:01:35.328Z,97974.63
2022-09-16T20:04:05.830Z,97977.91
2022-09-16T20:06:36.361Z,97979.50
2022-09-16T20:09:06.937Z,97988.00
2022-09-16T20:11:37.097Z,97990.09
2022-09-16T20:14:07.487Z,97993.38
2022-09-16T20:16:37.862Z,97983.72
2022-09-16T20:19:08.268Z,98000.22
2022-09-16T20:21:35.883Z,97992.13
2022-09-16T20:24:07.893Z,98001.53
2022-09-16T20:26:36.190Z,98002.28
2022-09-16T20:29:03.901Z,98014.19
2022-09-16T20:31:33.654Z,98015.16
2022-09-16T20:34:01.838Z,98015.16
2022-09-16T20:36:30.849Z,98014.19
2022-09-16T20:39:01.313Z,98018.66
2022-09-16T20:41:31.302Z,98017.72
2022-09-16T20:43:59.508Z,98018.53
2022-09-16T20:46:37.318Z,98021.41
2022-09-16T20:49:08.224Z,98022.22
2022-09-16T20:51:35.356Z,98015.75
2022-09-16T20:54:08.666Z,98029.22
2022-09-16T20:56:39.096Z,98031.25
2022-09-16T20:59:12.246Z,98025.81
2022-09-16T21:01:41.668Z,98021.16
2022-09-16T21:04:13.558Z,98033.16
2022-09-16T21:06:40.777Z,98007.72
2022-09-16T21:09:10.680Z,98033.81
2022-09-16T21:11:38.741Z,98038.75
2022-09-16T21:14:07.067Z,98040.22
2022-09-16T21:16:36.736Z,98032.38
2022-09-16T21:19:09.342Z,98039.91
2022-09-16T21:21:39.789Z,98023.38
2022-09-16T21:24:17.551Z,98041.00
2022-09-16T21:26:46.163Z,98038.56
2022-09-16T21:29:21.211Z,98046.50
2022-09-16T21:31:49.044Z,98052.22
2022-09-16T21:34:19.101Z,98015.59
2022-09-16T21:36:46.916Z,98046.78
2022-09-16T21:39:15.591Z,98045.22
2022-09-16T21:41:47.224Z,98052.16
2022-09-16T21:44:15.078Z,98063.88
2022-09-16T21:46:46.420Z,98054.13
2022-09-16T21:49:24.393Z,98051.66
2022-09-16T21:51:54.143Z,98066.50
2022-09-16T21:54:22.196Z,98067.81
2022-09-16T21:56:50.343Z,98067.94
2022-09-16T21:59:19.912Z,98066.72
2022-09-16T22:01:49.630Z,98066.75
2022-09-16T22:04:20.206Z,98074.88
2022-09-16T22:06:48.895Z,98062.66
2022-09-16T22:09:16.108Z,98078.81
2022-09-16T22:11:43.702Z,98080.25
2022-09-16T22:14:11.357Z,98088.78
2022-09-16T22:16:39.756Z,98097.75
2022-09-16T22:19:09.436Z,98087.16
2022-09-16T22:21:39.843Z,98093.19
2022-09-16T22:24:07.624Z,98090.47
2022-09-16T22:26:35.555Z,98105.41
2022-09-16T22:29:03.034Z,98100.91
2022-09-16T22:31:32.109Z,98092.78
2022-09-16T22:34:01.844Z,98096.72
2022-09-16T22:36:31.709Z,98108.00
2022-09-16T22:39:01.602Z,98114.16
2022-09-16T22:41:29.227Z,98114.19
2022-09-16T22:43:56.417Z,98115.81
2022-09-16T22:46:29.494Z,98121.91
2022-09-16T22:48:58.315Z,98121.31
2022-09-16T22:51:26.654Z,98121.13
2022-09-16T22:53:54.300Z,98125.19
2022-09-16T22:56:28.447Z,98124.00
2022-09-16T22:58:56.829Z,98123.63
2022-09-16T23:01:27.152Z,98120.38
2022-09-16T23:03:57.339Z,98132.81
2022-09-16T23:06:26.952Z,98128.97
2022-09-16T23:08:54.515Z,98128.16
2022-09-16T23:11:28.733Z,98131.00
2022-09-16T23:13:56.708Z,98128.59
2022-09-16T23:16:29.749Z,98123.06
2022-09-16T23:18:59.701Z,98132.63
2022-09-16T23:21:27.526Z,98141.63
2022-09-16T23:23:56.665Z,98140.44
2022-09-16T23:26:26.578Z,98141.47
2022-09-16T23:28:56.242Z,98142.06
2022-09-16T23:31:26.611Z,98142.94
2022-09-16T23:33:54.454Z,98152.72
2022-09-16T23:36:24.363Z,98147.44
2022-09-16T23:38:52.504Z,98132.00
2022-09-16T23:41:22.469Z,98151.88
2022-09-16T23:43:50.500Z,98154.75
2022-09-16T23:46:21.567Z,98148.25
2022-09-16T23:48:52.482Z,98148.88
2022-09-16T23:51:24.713Z,98142.41
2022-09-16T23:53:56.687Z,98146.22
2022-09-16T23:56:23.985Z,98138.91
2022-09-16T23:58:51.285Z,98129.56
